White Mountain, AK

10:31 AM AKDT on May 25, 2017 (GMT -0800)
White Mountain | | Change Station

Elev 276 ft 64.69 °N, 163.41 °W | Updated 35 minutes ago

Overcast
Overcast
37 °F
Feels Like 28 °F
N
14
Wind Variable Wind from SSW
Gusts 20 mph

Today
High -- | Low -- °F
--% Chance of Precip.
Yesterday
High -- | Low -- °F
Precip. -- in
Pressure 29.72 in
Visibility 10.0 miles
Clouds Mostly Cloudy 2000 ft
Mostly Cloudy 2600 ft
Windchill 28 °F
Dew Point 29 °F
Humidity 73%
Rainfall 0.00 in
Snow Depth Not available.
4:57 AM 0:46 AM
Waning Crescent, 0% visible
METAR PAWM 251756Z AUTO 20012G17KT 10SM BKN020 BKN026 03/M02 A2971 RMK AO2 SLP064 T00281017 10028 20000 51001
Pressure 29.72 in
Visibility 10.0 miles
Clouds Mostly Cloudy 2000 ft
Mostly Cloudy 2600 ft
Windchill 28 °F
Dew Point 29 °F
Humidity 73%
Rainfall 0.00 in
Snow Depth Not available.
4:57 AM 0:46 AM
Waning Crescent, 0% visible
METAR PAWM 251756Z AUTO 20012G17KT 10SM BKN020 BKN026 03/M02 A2971 RMK AO2 SLP064 T00281017 10028 20000 51001

Get Severe Weather Alerts

Thanks for signing up!

Be on the lookout for a verification email in your inbox.

You'll start receiving the daily forecast at 6 AM.

×

10-Day Weather Forecast

Almanac

Astronomy

May. 25, 2017 Rise Set
Actual Time
Civil Twilight
Nautical Twilight
Astronomical Twilight
Moon
Length of Visible Light
Length of Day
Tomorrow will be .
, % of the Moon is Illuminated

Today's Extremes

State Highs State Lows

Community

WunderPhotos

Category 6

Welcome to Category 6. This is the collective home for Weather Underground's featured writeups by Dr. Jeff Masters (right), Bob Henson (left), Chris Burt, and other regular contributors.

Nearby

Air Quality

  Air Quality AQ Index Pollutant
Not available.

Snow Depth

Station Depth Elevation

Earthquake Activity

City Distance Mag. Time & Date
Minimum magnitude displayed is 2.5.

Coastal Water Temperatures

Place Temperature

Stations

Nearby Weather Stations

Station Location Temp. Windchill Dew Point Humidity Wind Precip. Elev Updated Type
                   

Watches & Warnings

There are currently no watches in effect.